sensor_id;sensor_type;location;lat;lon;timestamp;pressure;altitude;pressure_sealevel;temperature;humidity
78409;BME280;67697;50.750;-3.270;2023-06-14T00:02:10;100902.94;;;22.71;34.32
78409;BME280;67697;50.750;-3.270;2023-06-14T00:04:36;100908.79;;;23.33;34.14
78409;BME280;67697;50.750;-3.270;2023-06-14T00:07:01;100908.82;;;22.46;34.75
78409;BME280;67697;50.750;-3.270;2023-06-14T00:09:27;100909.04;;;23.54;33.56
78409;BME280;67697;50.750;-3.270;2023-06-14T00:11:53;100907.53;;;22.39;34.98
78409;BME280;67697;50.750;-3.270;2023-06-14T00:14:18;100906.71;;;22.90;34.64
78409;BME280;67697;50.750;-3.270;2023-06-14T00:16:43;100907.15;;;23.87;33.72
78409;BME280;67697;50.750;-3.270;2023-06-14T00:19:09;100907.92;;;23.79;33.04
78409;BME280;67697;50.750;-3.270;2023-06-14T00:21:34;100911.95;;;23.88;32.88
78409;BME280;67697;50.750;-3.270;2023-06-14T00:24:01;100914.39;;;23.42;33.27
78409;BME280;67697;50.750;-3.270;2023-06-14T00:26:25;100917.27;;;23.19;33.42
78409;BME280;67697;50.750;-3.270;2023-06-14T00:28:51;100920.66;;;23.93;33.24
78409;BME280;67697;50.750;-3.270;2023-06-14T00:31:16;100920.91;;;22.03;34.80
78409;BME280;67697;50.750;-3.270;2023-06-14T00:33:42;100923.47;;;23.29;33.55
78409;BME280;67697;50.750;-3.270;2023-06-14T00:36:07;100923.96;;;21.03;37.17
78409;BME280;67697;50.750;-3.270;2023-06-14T00:38:33;100923.30;;;23.64;33.72
78409;BME280;67697;50.750;-3.270;2023-06-14T00:40:58;100924.93;;;24.07;33.10
78409;BME280;67697;50.750;-3.270;2023-06-14T00:43:24;100924.11;;;23.93;33.24
78409;BME280;67697;50.750;-3.270;2023-06-14T00:45:50;100924.28;;;23.49;33.47
78409;BME280;67697;50.750;-3.270;2023-06-14T00:48:15;100924.03;;;22.09;35.61
78409;BME280;67697;50.750;-3.270;2023-06-14T00:50:41;100926.13;;;22.32;35.21
78409;BME280;67697;50.750;-3.270;2023-06-14T00:53:06;100929.80;;;23.86;33.53
78409;BME280;67697;50.750;-3.270;2023-06-14T00:55:32;100929.89;;;20.24;38.76
78409;BME280;67697;50.750;-3.270;2023-06-14T00:57:57;100924.91;;;22.22;35.42
78409;BME280;67697;50.750;-3.270;2023-06-14T01:00:23;100924.82;;;22.66;35.15
78409;BME280;67697;50.750;-3.270;2023-06-14T01:02:49;100924.38;;;21.11;37.34
78409;BME280;67697;50.750;-3.270;2023-06-14T01:05:15;100924.94;;;21.33;37.48
78409;BME280;67697;50.750;-3.270;2023-06-14T01:07:51;100926.23;;;21.21;37.31
78409;BME280;67697;50.750;-3.270;2023-06-14T01:10:15;100929.28;;;21.68;36.38
78409;BME280;67697;50.750;-3.270;2023-06-14T01:12:36;100924.58;;;23.29;34.65
78409;BME280;67697;50.750;-3.270;2023-06-14T01:14:57;100925.84;;;22.66;35.15
78409;BME280;67697;50.750;-3.270;2023-06-14T01:17:22;100925.05;;;23.83;34.37
78409;BME280;67697;50.750;-3.270;2023-06-14T01:19:47;100923.88;;;22.66;35.70
78409;BME280;67697;50.750;-3.270;2023-06-14T01:22:13;100921.24;;;23.05;35.73
78409;BME280;67697;50.750;-3.270;2023-06-14T01:24:38;100923.68;;;22.16;36.73
78409;BME280;67697;50.750;-3.270;2023-06-14T01:27:04;100919.19;;;20.87;38.68
78409;BME280;67697;50.750;-3.270;2023-06-14T01:29:29;100921.68;;;20.23;40.81
78409;BME280;67697;50.750;-3.270;2023-06-14T01:31:54;100920.13;;;20.18;40.70
78409;BME280;67697;50.750;-3.270;2023-06-14T01:34:20;100918.14;;;20.44;40.77
78409;BME280;67697;50.750;-3.270;2023-06-14T01:36:46;100915.17;;;20.59;40.58
78409;BME280;67697;50.750;-3.270;2023-06-14T01:39:13;100915.37;;;20.84;40.25
78409;BME280;67697;50.750;-3.270;2023-06-14T01:41:36;100917.77;;;20.14;40.72
78409;BME280;67697;50.750;-3.270;2023-06-14T01:44:02;100916.48;;;20.17;40.94
78409;BME280;67697;50.750;-3.270;2023-06-14T01:46:27;100913.69;;;20.12;40.97
78409;BME280;67697;50.750;-3.270;2023-06-14T01:48:52;100913.71;;;20.02;41.60
78409;BME280;67697;50.750;-3.270;2023-06-14T01:51:18;100910.97;;;19.76;41.50
78409;BME280;67697;50.750;-3.270;2023-06-14T01:53:43;100910.22;;;19.44;41.70
78409;BME280;67697;50.750;-3.270;2023-06-14T01:56:09;100910.20;;;19.48;42.03
78409;BME280;67697;50.750;-3.270;2023-06-14T01:58:34;100904.15;;;19.90;40.96
78409;BME280;67697;50.750;-3.270;2023-06-14T02:00:59;100901.47;;;19.98;40.59
78409;BME280;67697;50.750;-3.270;2023-06-14T02:03:24;100901.51;;;19.51;40.86
78409;BME280;67697;50.750;-3.270;2023-06-14T02:05:50;100902.47;;;19.79;39.76
78409;BME280;67697;50.750;-3.270;2023-06-14T02:08:15;100897.39;;;18.64;42.95
78409;BME280;67697;50.750;-3.270;2023-06-14T02:10:41;100900.88;;;19.58;40.25
78409;BME280;67697;50.750;-3.270;2023-06-14T02:13:06;100902.11;;;18.47;41.37
78409;BME280;67697;50.750;-3.270;2023-06-14T02:15:31;100903.34;;;19.80;40.42
78409;BME280;67697;50.750;-3.270;2023-06-14T02:17:57;100898.18;;;20.93;37.96
78409;BME280;67697;50.750;-3.270;2023-06-14T02:20:22;100897.17;;;21.51;37.01
78409;BME280;67697;50.750;-3.270;2023-06-14T02:22:48;100896.00;;;21.29;37.17
78409;BME280;67697;50.750;-3.270;2023-06-14T02:25:13;100894.48;;;21.10;37.26
78409;BME280;67697;50.750;-3.270;2023-06-14T02:27:38;100892.08;;;20.96;37.71
78409;BME280;67697;50.750;-3.270;2023-06-14T02:30:05;100889.97;;;21.08;37.36
78409;BME280;67697;50.750;-3.270;2023-06-14T02:32:29;100889.49;;;20.99;37.69
78409;BME280;67697;50.750;-3.270;2023-06-14T02:34:55;100890.83;;;19.63;39.74
78409;BME280;67697;50.750;-3.270;2023-06-14T02:37:21;100890.81;;;19.66;39.55
78409;BME280;67697;50.750;-3.270;2023-06-14T02:39:46;100895.55;;;19.28;39.99
78409;BME280;67697;50.750;-3.270;2023-06-14T02:42:11;100888.13;;;21.46;37.48
78409;BME280;67697;50.750;-3.270;2023-06-14T02:44:36;100887.82;;;21.34;37.67
78409;BME280;67697;50.750;-3.270;2023-06-14T02:47:02;100889.03;;;21.15;38.43
78409;BME280;67697;50.750;-3.270;2023-06-14T02:49:27;100895.42;;;19.70;40.75
78409;BME280;67697;50.750;-3.270;2023-06-14T02:51:52;100898.53;;;19.54;41.50
78409;BME280;67697;50.750;-3.270;2023-06-14T02:54:18;100895.76;;;18.56;43.18
78409;BME280;67697;50.750;-3.270;2023-06-14T02:56:43;100895.50;;;18.26;43.85
78409;BME280;67697;50.750;-3.270;2023-06-14T02:59:09;100896.13;;;18.01;43.66
78409;BME280;67697;50.750;-3.270;2023-06-14T03:01:34;100895.85;;;17.53;44.61
78409;BME280;67697;50.750;-3.270;2023-06-14T03:04:00;100896.81;;;17.78;44.66
78409;BME280;67697;50.750;-3.270;2023-06-14T03:06:25;100895.69;;;17.32;46.23
78409;BME280;67697;50.750;-3.270;2023-06-14T03:08:51;100891.82;;;17.69;45.16
78409;BME280;67697;50.750;-3.270;2023-06-14T03:11:16;100889.00;;;18.50;43.23
78409;BME280;67697;50.750;-3.270;2023-06-14T03:13:41;100889.17;;;17.76;44.31
78409;BME280;67697;50.750;-3.270;2023-06-14T03:16:06;100889.79;;;18.60;42.80
78409;BME280;67697;50.750;-3.270;2023-06-14T03:18:32;100894.73;;;17.80;43.52
78409;BME280;67697;50.750;-3.270;2023-06-14T03:20:57;100895.50;;;18.85;41.55
78409;BME280;67697;50.750;-3.270;2023-06-14T03:23:23;100897.86;;;19.47;40.52
78409;BME280;67697;50.750;-3.270;2023-06-14T03:25:48;100897.19;;;19.36;40.75
78409;BME280;67697;50.750;-3.270;2023-06-14T03:28:14;100897.74;;;19.51;40.88
78409;BME280;67697;50.750;-3.270;2023-06-14T03:30:39;100896.45;;;19.31;41.62
78409;BME280;67697;50.750;-3.270;2023-06-14T03:33:04;100892.54;;;19.00;42.20
78409;BME280;67697;50.750;-3.270;2023-06-14T03:35:30;100895.92;;;19.10;41.95
78409;BME280;67697;50.750;-3.270;2023-06-14T03:37:55;100894.74;;;19.16;42.44
78409;BME280;67697;50.750;-3.270;2023-06-14T03:40:21;100893.12;;;18.66;43.05
78409;BME280;67697;50.750;-3.270;2023-06-14T03:42:45;100892.83;;;18.27;43.14
78409;BME280;67697;50.750;-3.270;2023-06-14T03:45:11;100893.03;;;18.57;42.98
78409;BME280;67697;50.750;-3.270;2023-06-14T03:47:36;100896.87;;;18.52;43.08
78409;BME280;67697;50.750;-3.270;2023-06-14T03:50:02;100894.83;;;17.50;44.71
78409;BME280;67697;50.750;-3.270;2023-06-14T03:52:27;100901.04;;;15.75;48.42
78409;BME280;67697;50.750;-3.270;2023-06-14T03:54:53;100902.53;;;17.52;44.77
78409;BME280;67697;50.750;-3.270;2023-06-14T03:57:19;100906.26;;;17.99;44.35
78409;BME280;67697;50.750;-3.270;2023-06-14T03:59:44;100910.84;;;16.77;47.66
78409;BME280;67697;50.750;-3.270;2023-06-14T04:02:09;100916.89;;;16.23;49.71
78409;BME280;67697;50.750;-3.270;2023-06-14T04:04:34;100920.09;;;15.85;50.69
78409;BME280;67697;50.750;-3.270;2023-06-14T04:07:00;100916.64;;;15.90;50.28
78409;BME280;67697;50.750;-3.270;2023-06-14T04:09:26;100911.88;;;16.98;48.38
78409;BME280;67697;50.750;-3.270;2023-06-14T04:11:51;100910.68;;;17.17;46.97
78409;BME280;67697;50.750;-3.270;2023-06-14T04:14:16;100914.28;;;17.40;46.10
78409;BME280;67697;50.750;-3.270;2023-06-14T04:16:42;100915.36;;;17.40;46.12
78409;BME280;67697;50.750;-3.270;2023-06-14T04:19:07;100914.31;;;16.93;46.42
78409;BME280;67697;50.750;-3.270;2023-06-14T04:21:32;100919.20;;;17.06;46.24
78409;BME280;67697;50.750;-3.270;2023-06-14T04:23:58;100914.46;;;18.41;42.72
78409;BME280;67697;50.750;-3.270;2023-06-14T04:26:23;100912.72;;;18.32;42.34
78409;BME280;67697;50.750;-3.270;2023-06-14T04:28:48;100910.16;;;18.83;41.14
78409;BME280;67697;50.750;-3.270;2023-06-14T04:31:14;100909.82;;;18.33;40.90
78409;BME280;67697;50.750;-3.270;2023-06-14T04:33:39;100913.55;;;18.82;39.86
78409;BME280;67697;50.750;-3.270;2023-06-14T04:36:05;100915.47;;;18.76;41.07
78409;BME280;67697;50.750;-3.270;2023-06-14T04:38:30;100914.62;;;18.35;42.36
78409;BME280;67697;50.750;-3.270;2023-06-14T04:40:56;100917.21;;;17.69;43.09
78409;BME280;67697;50.750;-3.270;2023-06-14T04:43:21;100918.23;;;17.32;44.80
78409;BME280;67697;50.750;-3.270;2023-06-14T04:45:46;100918.49;;;17.77;44.47
78409;BME280;67697;50.750;-3.270;2023-06-14T04:48:12;100920.55;;;17.58;44.20
78409;BME280;67697;50.750;-3.270;2023-06-14T04:50:37;100920.64;;;15.96;47.57
78409;BME280;67697;50.750;-3.270;2023-06-14T04:53:03;100922.50;;;16.09;47.52
78409;BME280;67697;50.750;-3.270;2023-06-14T04:55:28;100927.25;;;16.01;48.22
78409;BME280;67697;50.750;-3.270;2023-06-14T04:57:53;100932.78;;;15.51;50.33
78409;BME280;67697;50.750;-3.270;2023-06-14T05:00:19;100931.99;;;16.06;48.17
78409;BME280;67697;50.750;-3.270;2023-06-14T05:02:44;100929.32;;;16.29;47.93
78409;BME280;67697;50.750;-3.270;2023-06-14T05:05:09;100932.99;;;16.52;47.06
78409;BME280;67697;50.750;-3.270;2023-06-14T05:07:34;100933.42;;;15.95;48.76
78409;BME280;67697;50.750;-3.270;2023-06-14T05:10:00;100928.97;;;15.95;48.24
78409;BME280;67697;50.750;-3.270;2023-06-14T05:12:25;100933.53;;;15.79;49.33
78409;BME280;67697;50.750;-3.270;2023-06-14T05:14:50;100934.13;;;15.30;50.05
78409;BME280;67697;50.750;-3.270;2023-06-14T05:17:16;100930.54;;;15.71;48.86
78409;BME280;67697;50.750;-3.270;2023-06-14T05:19:41;100931.41;;;16.02;48.27
78409;BME280;67697;50.750;-3.270;2023-06-14T05:22:07;100932.95;;;15.85;48.47
78409;BME280;67697;50.750;-3.270;2023-06-14T05:24:32;100931.00;;;17.03;46.42
78409;BME280;67697;50.750;-3.270;2023-06-14T05:26:57;100933.76;;;16.08;48.16
78409;BME280;67697;50.750;-3.270;2023-06-14T05:29:22;100931.35;;;16.38;47.28
78409;BME280;67697;50.750;-3.270;2023-06-14T05:31:47;100935.08;;;15.53;48.26
78409;BME280;67697;50.750;-3.270;2023-06-14T05:34:13;100932.42;;;16.01;48.06
78409;BME280;67697;50.750;-3.270;2023-06-14T05:36:39;100932.07;;;16.29;47.74
78409;BME280;67697;50.750;-3.270;2023-06-14T05:39:04;100931.01;;;16.12;46.81
78409;BME280;67697;50.750;-3.270;2023-06-14T05:41:29;100929.67;;;16.05;46.14
78409;BME280;67697;50.750;-3.270;2023-06-14T05:43:55;100926.56;;;16.60;45.92
78409;BME280;67697;50.750;-3.270;2023-06-14T05:46:20;100926.41;;;16.56;45.00
78409;BME280;67697;50.750;-3.270;2023-06-14T05:48:45;100928.36;;;17.30;43.96
78409;BME280;67697;50.750;-3.270;2023-06-14T05:51:11;100926.20;;;17.22;43.18
78409;BME280;67697;50.750;-3.270;2023-06-14T05:53:36;100924.67;;;17.48;42.22
78409;BME280;67697;50.750;-3.270;2023-06-14T05:56:01;100926.07;;;18.40;40.47
78409;BME280;67697;50.750;-3.270;2023-06-14T05:58:26;100930.72;;;17.85;41.18
78409;BME280;67697;50.750;-3.270;2023-06-14T06:00:52;100935.03;;;18.10;40.47
78409;BME280;67697;50.750;-3.270;2023-06-14T06:03:17;100937.65;;;19.14;38.21
78409;BME280;67697;50.750;-3.270;2023-06-14T06:05:43;100938.03;;;19.19;37.42
78409;BME280;67697;50.750;-3.270;2023-06-14T06:08:08;100934.46;;;19.24;37.63
78409;BME280;67697;50.750;-3.270;2023-06-14T06:10:34;100932.44;;;18.69;38.35
78409;BME280;67697;50.750;-3.270;2023-06-14T06:13:00;100931.54;;;18.64;37.49
78409;BME280;67697;50.750;-3.270;2023-06-14T06:15:25;100935.53;;;19.05;36.38
78409;BME280;67697;50.750;-3.270;2023-06-14T06:17:51;100940.00;;;18.11;37.69
78409;BME280;67697;50.750;-3.270;2023-06-14T06:20:17;100943.12;;;18.25;37.55
78409;BME280;67697;50.750;-3.270;2023-06-14T06:22:42;100946.36;;;18.09;37.54
78409;BME280;67697;50.750;-3.270;2023-06-14T06:25:08;100947.20;;;19.08;36.98
78409;BME280;67697;50.750;-3.270;2023-06-14T06:27:32;100951.56;;;19.17;37.52
78409;BME280;67697;50.750;-3.270;2023-06-14T06:29:58;100949.14;;;18.47;39.67
78409;BME280;67697;50.750;-3.270;2023-06-14T06:32:23;100950.76;;;18.45;39.58
78409;BME280;67697;50.750;-3.270;2023-06-14T06:34:48;100955.17;;;18.53;38.24
78409;BME280;67697;50.750;-3.270;2023-06-14T06:37:14;100955.08;;;17.19;41.04
78409;BME280;67697;50.750;-3.270;2023-06-14T06:39:39;100956.50;;;18.39;39.12
78409;BME280;67697;50.750;-3.270;2023-06-14T06:42:05;100956.80;;;18.25;39.64
78409;BME280;67697;50.750;-3.270;2023-06-14T06:44:30;100954.41;;;17.97;39.81
78409;BME280;67697;50.750;-3.270;2023-06-14T06:46:55;100950.24;;;18.42;38.85
78409;BME280;67697;50.750;-3.270;2023-06-14T06:49:20;100949.92;;;17.68;40.15
78409;BME280;67697;50.750;-3.270;2023-06-14T06:51:59;100951.77;;;18.33;39.48
78409;BME280;67697;50.750;-3.270;2023-06-14T06:54:12;100951.87;;;17.92;39.57
78409;BME280;67697;50.750;-3.270;2023-06-14T06:56:38;100951.11;;;18.21;38.99
78409;BME280;67697;50.750;-3.270;2023-06-14T06:59:03;100948.16;;;17.74;39.42
78409;BME280;67697;50.750;-3.270;2023-06-14T07:01:28;100947.95;;;18.62;38.42
78409;BME280;67697;50.750;-3.270;2023-06-14T07:03:53;100952.87;;;19.08;37.32
78409;BME280;67697;50.750;-3.270;2023-06-14T07:06:19;100958.89;;;19.28;36.59
78409;BME280;67697;50.750;-3.270;2023-06-14T07:08:44;100958.50;;;18.53;37.79
78409;BME280;67697;50.750;-3.270;2023-06-14T07:11:10;100956.11;;;19.09;36.76
78409;BME280;67697;50.750;-3.270;2023-06-14T07:13:35;100961.55;;;18.35;37.29
78409;BME280;67697;50.750;-3.270;2023-06-14T07:16:01;100962.15;;;18.92;37.19
78409;BME280;67697;50.750;-3.270;2023-06-14T07:18:26;100964.66;;;19.58;35.46
78409;BME280;67697;50.750;-3.270;2023-06-14T07:20:52;100963.49;;;19.09;36.43
78409;BME280;67697;50.750;-3.270;2023-06-14T07:23:17;100963.05;;;19.44;37.31
78409;BME280;67697;50.750;-3.270;2023-06-14T07:25:43;100964.07;;;19.61;36.61
78409;BME280;67697;50.750;-3.270;2023-06-14T07:28:09;100969.02;;;20.04;36.61
78409;BME280;67697;50.750;-3.270;2023-06-14T07:30:35;100972.78;;;18.60;36.69
78409;BME280;67697;50.750;-3.270;2023-06-14T07:33:00;100976.22;;;20.04;35.58
78409;BME280;67697;50.750;-3.270;2023-06-14T07:35:25;100980.14;;;19.67;37.15
78409;BME280;67697;50.750;-3.270;2023-06-14T07:37:50;100983.06;;;19.29;37.05
78409;BME280;67697;50.750;-3.270;2023-06-14T07:40:16;100984.49;;;19.40;37.88
78409;BME280;67697;50.750;-3.270;2023-06-14T07:42:42;100987.06;;;19.89;37.60
78409;BME280;67697;50.750;-3.270;2023-06-14T07:45:07;100987.88;;;19.70;37.46
78409;BME280;67697;50.750;-3.270;2023-06-14T07:47:33;100990.55;;;19.88;37.46
78409;BME280;67697;50.750;-3.270;2023-06-14T07:49:58;100990.42;;;19.71;37.29
78409;BME280;67697;50.750;-3.270;2023-06-14T07:52:23;100987.97;;;19.62;37.52
78409;BME280;67697;50.750;-3.270;2023-06-14T07:54:49;100984.90;;;20.03;35.00
78409;BME280;67697;50.750;-3.270;2023-06-14T07:57:15;100985.72;;;20.30;32.83
78409;BME280;67697;50.750;-3.270;2023-06-14T07:59:40;100984.09;;;19.78;33.11
78409;BME280;67697;50.750;-3.270;2023-06-14T08:02:06;100987.72;;;20.05;31.54
78409;BME280;67697;50.750;-3.270;2023-06-14T08:04:31;100985.14;;;20.02;31.68
78409;BME280;67697;50.750;-3.270;2023-06-14T08:06:57;100986.28;;;20.23;31.34
78409;BME280;67697;50.750;-3.270;2023-06-14T08:09:22;100986.74;;;19.93;31.74
78409;BME280;67697;50.750;-3.270;2023-06-14T08:11:47;100986.84;;;20.33;31.76
78409;BME280;67697;50.750;-3.270;2023-06-14T08:14:13;100988.50;;;20.29;31.43
78409;BME280;67697;50.750;-3.270;2023-06-14T08:16:38;100987.16;;;20.03;32.09
78409;BME280;67697;50.750;-3.270;2023-06-14T08:19:04;100987.07;;;21.07;29.95
78409;BME280;67697;50.750;-3.270;2023-06-14T08:21:29;100991.90;;;20.40;28.60
78409;BME280;67697;50.750;-3.270;2023-06-14T08:23:55;100990.40;;;20.21;28.79
78409;BME280;67697;50.750;-3.270;2023-06-14T08:26:21;100994.51;;;19.80;29.09
78409;BME280;67697;50.750;-3.270;2023-06-14T08:28:46;100989.01;;;21.35;27.57
78409;BME280;67697;50.750;-3.270;2023-06-14T08:31:11;100994.56;;;20.96;29.22
78409;BME280;67697;50.750;-3.270;2023-06-14T08:33:37;100988.63;;;20.77;29.04
78409;BME280;67697;50.750;-3.270;2023-06-14T08:36:02;100991.82;;;20.85;29.43
78409;BME280;67697;50.750;-3.270;2023-06-14T08:38:28;100991.67;;;21.61;28.79
78409;BME280;67697;50.750;-3.270;2023-06-14T08:40:57;100991.84;;;22.16;25.65
78409;BME280;67697;50.750;-3.270;2023-06-14T08:43:19;100993.35;;;22.21;23.91
78409;BME280;67697;50.750;-3.270;2023-06-14T08:45:46;100991.95;;;21.46;25.17
78409;BME280;67697;50.750;-3.270;2023-06-14T08:48:09;100992.88;;;22.17;24.52
78409;BME280;67697;50.750;-3.270;2023-06-14T08:50:36;100993.74;;;21.79;24.98
78409;BME280;67697;50.750;-3.270;2023-06-14T08:53:02;100999.45;;;22.70;23.95
78409;BME280;67697;50.750;-3.270;2023-06-14T08:55:27;101000.40;;;22.26;24.78
78409;BME280;67697;50.750;-3.270;2023-06-14T08:57:54;101002.96;;;22.22;24.41
78409;BME280;67697;50.750;-3.270;2023-06-14T09:00:17;101002.02;;;22.36;23.08
78409;BME280;67697;50.750;-3.270;2023-06-14T09:02:42;100998.58;;;22.68;22.26
78409;BME280;67697;50.750;-3.270;2023-06-14T09:05:08;101001.26;;;21.01;21.99
78409;BME280;67697;50.750;-3.270;2023-06-14T09:07:33;101005.21;;;22.58;21.97
78409;BME280;67697;50.750;-3.270;2023-06-14T09:10:08;101003.14;;;22.28;19.64
78409;BME280;67697;50.750;-3.270;2023-06-14T09:12:24;101005.03;;;22.13;20.08
78409;BME280;67697;50.750;-3.270;2023-06-14T09:14:49;101003.24;;;22.36;19.99
78409;BME280;67697;50.750;-3.270;2023-06-14T09:17:15;101004.38;;;22.18;21.24
78409;BME280;67697;50.750;-3.270;2023-06-14T09:19:40;101001.63;;;22.16;21.14
78409;BME280;67697;50.750;-3.270;2023-06-14T09:22:06;100999.83;;;22.12;21.13
78409;BME280;67697;50.750;-3.270;2023-06-14T09:24:31;100998.71;;;22.11;21.38
78409;BME280;67697;50.750;-3.270;2023-06-14T09:26:56;100998.99;;;22.20;21.80
78409;BME280;67697;50.750;-3.270;2023-06-14T09:29:22;101002.29;;;21.36;20.91
78409;BME280;67697;50.750;-3.270;2023-06-14T09:31:47;101001.31;;;22.73;20.93
78409;BME280;67697;50.750;-3.270;2023-06-14T09:34:13;101004.40;;;23.60;20.96
78409;BME280;67697;50.750;-3.270;2023-06-14T09:36:40;101003.14;;;22.31;21.43
78409;BME280;67697;50.750;-3.270;2023-06-14T09:39:04;101012.95;;;22.56;22.13
78409;BME280;67697;50.750;-3.270;2023-06-14T09:41:33;101011.57;;;22.38;20.64
78409;BME280;67697;50.750;-3.270;2023-06-14T09:43:55;101015.55;;;22.56;21.42
78409;BME280;67697;50.750;-3.270;2023-06-14T09:46:25;101014.64;;;22.14;22.39
78409;BME280;67697;50.750;-3.270;2023-06-14T09:48:46;101016.60;;;22.70;21.84
78409;BME280;67697;50.750;-3.270;2023-06-14T09:51:14;101014.57;;;22.00;22.38
78409;BME280;67697;50.750;-3.270;2023-06-14T09:53:37;101018.76;;;22.47;21.23
78409;BME280;67697;50.750;-3.270;2023-06-14T09:56:02;101017.87;;;22.21;19.91
78409;BME280;67697;50.750;-3.270;2023-06-14T09:58:28;101017.80;;;22.39;20.87
78409;BME280;67697;50.750;-3.270;2023-06-14T10:00:54;101021.22;;;22.54;20.58
78409;BME280;67697;50.750;-3.270;2023-06-14T10:03:24;101023.55;;;22.23;20.76
78409;BME280;67697;50.750;-3.270;2023-06-14T10:05:45;101023.45;;;21.99;20.98
78409;BME280;67697;50.750;-3.270;2023-06-14T10:08:12;101026.09;;;22.24;21.41
78409;BME280;67697;50.750;-3.270;2023-06-14T10:10:34;101024.36;;;23.07;21.36
78409;BME280;67697;50.750;-3.270;2023-06-14T10:13:00;101025.21;;;22.23;19.94
78409;BME280;67697;50.750;-3.270;2023-06-14T10:15:30;101023.24;;;21.90;21.57
78409;BME280;67697;50.750;-3.270;2023-06-14T10:17:54;101030.15;;;22.19;23.20
78409;BME280;67697;50.750;-3.270;2023-06-14T10:20:26;101023.36;;;21.65;21.30
78409;BME280;67697;50.750;-3.270;2023-06-14T10:22:47;101021.50;;;21.97;22.22
78409;BME280;67697;50.750;-3.270;2023-06-14T10:25:12;101023.44;;;23.02;20.19
78409;BME280;67697;50.750;-3.270;2023-06-14T10:27:33;101019.70;;;23.05;20.87
78409;BME280;67697;50.750;-3.270;2023-06-14T10:30:07;101027.05;;;22.40;22.07
78409;BME280;67697;50.750;-3.270;2023-06-14T10:32:25;101026.61;;;23.53;20.23
78409;BME280;67697;50.750;-3.270;2023-06-14T10:34:54;101022.04;;;23.58;19.14
78409;BME280;67697;50.750;-3.270;2023-06-14T10:37:16;101022.91;;;24.28;19.72
78409;BME280;67697;50.750;-3.270;2023-06-14T10:39:41;101022.04;;;24.18;16.90
78409;BME280;67697;50.750;-3.270;2023-06-14T10:42:06;101023.04;;;24.43;16.86
78409;BME280;67697;50.750;-3.270;2023-06-14T10:44:39;101024.08;;;24.44;16.19
78409;BME280;67697;50.750;-3.270;2023-06-14T10:46:59;101017.99;;;23.67;17.11
78409;BME280;67697;50.750;-3.270;2023-06-14T10:51:50;101014.70;;;24.24;16.58
78409;BME280;67697;50.750;-3.270;2023-06-14T10:54:13;101009.87;;;23.86;16.02
78409;BME280;67697;50.750;-3.270;2023-06-14T10:56:45;101008.07;;;24.25;14.63
78409;BME280;67697;50.750;-3.270;2023-06-14T10:59:04;101004.97;;;23.48;15.73
78409;BME280;67697;50.750;-3.270;2023-06-14T11:01:36;101005.05;;;23.43;15.61
78409;BME280;67697;50.750;-3.270;2023-06-14T11:03:56;101000.66;;;23.40;15.98
78409;BME280;67697;50.750;-3.270;2023-06-14T11:06:22;101000.70;;;24.45;15.26
78409;BME280;67697;50.750;-3.270;2023-06-14T11:11:13;100998.56;;;23.96;14.62
78409;BME280;67697;50.750;-3.270;2023-06-14T11:13:38;100997.46;;;23.35;14.68
78409;BME280;67697;50.750;-3.270;2023-06-14T11:16:02;100994.02;;;24.02;15.82
78409;BME280;67697;50.750;-3.270;2023-06-14T11:18:28;100991.94;;;24.79;13.67
78409;BME280;67697;50.750;-3.270;2023-06-14T11:20:53;100986.93;;;24.25;14.96
78409;BME280;67697;50.750;-3.270;2023-06-14T11:23:19;100983.24;;;23.85;15.23
78409;BME280;67697;50.750;-3.270;2023-06-14T11:25:50;100981.30;;;23.29;16.13
78409;BME280;67697;50.750;-3.270;2023-06-14T11:28:09;100984.32;;;24.86;14.89
78409;BME280;67697;50.750;-3.270;2023-06-14T11:30:35;100981.54;;;24.70;16.02
78409;BME280;67697;50.750;-3.270;2023-06-14T11:33:00;100980.02;;;25.14;14.19
78409;BME280;67697;50.750;-3.270;2023-06-14T11:35:26;100976.74;;;25.38;14.87
78409;BME280;67697;50.750;-3.270;2023-06-14T11:37:53;100975.64;;;24.97;15.26
78409;BME280;67697;50.750;-3.270;2023-06-14T11:40:16;100973.50;;;25.50;15.61
78409;BME280;67697;50.750;-3.270;2023-06-14T11:42:42;100975.84;;;25.58;15.81
78409;BME280;67697;50.750;-3.270;2023-06-14T11:45:08;100977.21;;;25.50;13.83
78409;BME280;67697;50.750;-3.270;2023-06-14T11:47:33;100968.72;;;26.10;13.29
78409;BME280;67697;50.750;-3.270;2023-06-14T11:49:58;100965.04;;;25.55;12.81
78409;BME280;67697;50.750;-3.270;2023-06-14T11:52:23;100964.34;;;25.94;13.27
78409;BME280;67697;50.750;-3.270;2023-06-14T11:54:49;100965.19;;;26.06;14.40
78409;BME280;67697;50.750;-3.270;2023-06-14T11:57:15;100962.66;;;25.77;14.58
78409;BME280;67697;50.750;-3.270;2023-06-14T11:59:40;100962.58;;;26.06;13.43
78409;BME280;67697;50.750;-3.270;2023-06-14T12:02:06;100970.05;;;25.96;15.00
78409;BME280;67697;50.750;-3.270;2023-06-14T12:04:31;100961.87;;;25.59;15.73
78409;BME280;67697;50.750;-3.270;2023-06-14T12:06:56;100967.85;;;25.96;14.54
78409;BME280;67697;50.750;-3.270;2023-06-14T12:09:22;100965.90;;;25.02;14.68
78409;BME280;67697;50.750;-3.270;2023-06-14T12:11:47;100966.22;;;26.24;15.45
78409;BME280;67697;50.750;-3.270;2023-06-14T12:14:12;100964.79;;;25.92;15.79
78409;BME280;67697;50.750;-3.270;2023-06-14T12:16:39;100962.12;;;26.52;15.09
78409;BME280;67697;50.750;-3.270;2023-06-14T12:19:08;100963.55;;;26.16;15.41
78409;BME280;67697;50.750;-3.270;2023-06-14T12:21:28;100959.97;;;26.88;14.97
78409;BME280;67697;50.750;-3.270;2023-06-14T12:23:54;100961.93;;;25.81;16.17
78409;BME280;67697;50.750;-3.270;2023-06-14T12:26:20;100961.28;;;25.92;15.65
78409;BME280;67697;50.750;-3.270;2023-06-14T12:28:45;100958.82;;;25.77;17.02
78409;BME280;67697;50.750;-3.270;2023-06-14T12:31:11;100956.29;;;26.83;15.70
78409;BME280;67697;50.750;-3.270;2023-06-14T12:33:35;100957.90;;;25.44;17.10
78409;BME280;67697;50.750;-3.270;2023-06-14T12:36:02;100955.94;;;27.09;15.92